sensor_id;sensor_type;location;lat;lon;timestamp;temperature;humidity
11963;DHT22;62678;52.130;5.584;2023-02-24T00:01:12;3.20;99.90
11963;DHT22;62678;52.130;5.584;2023-02-24T00:03:43;3.30;99.90
11963;DHT22;62678;52.130;5.584;2023-02-24T00:06:10;3.30;99.90
11963;DHT22;62678;52.130;5.584;2023-02-24T00:08:38;3.30;99.90
11963;DHT22;62678;52.130;5.584;2023-02-24T00:11:07;3.20;99.90
11963;DHT22;62678;52.130;5.584;2023-02-24T00:13:35;3.30;99.90
11963;DHT22;62678;52.130;5.584;2023-02-24T00:16:03;3.20;99.90
11963;DHT22;62678;52.130;5.584;2023-02-24T00:18:32;3.20;99.90
11963;DHT22;62678;52.130;5.584;2023-02-24T00:21:07;3.20;99.90
11963;DHT22;62678;52.130;5.584;2023-02-24T00:23:36;3.30;99.90
11963;DHT22;62678;52.130;5.584;2023-02-24T00:26:05;3.20;99.90
11963;DHT22;62678;52.130;5.584;2023-02-24T00:28:33;3.30;99.90
11963;DHT22;62678;52.130;5.584;2023-02-24T00:31:02;3.30;99.90
11963;DHT22;62678;52.130;5.584;2023-02-24T00:33:32;3.30;99.90
11963;DHT22;62678;52.130;5.584;2023-02-24T00:36:08;3.30;99.90
11963;DHT22;62678;52.130;5.584;2023-02-24T00:38:36;3.20;99.90
11963;DHT22;62678;52.130;5.584;2023-02-24T00:41:10;3.20;99.90
11963;DHT22;62678;52.130;5.584;2023-02-24T00:43:39;3.30;99.90
11963;DHT22;62678;52.130;5.584;2023-02-24T00:46:12;3.20;99.90
11963;DHT22;62678;52.130;5.584;2023-02-24T00:48:40;3.20;99.90
11963;DHT22;62678;52.130;5.584;2023-02-24T00:51:11;3.10;99.90
11963;DHT22;62678;52.130;5.584;2023-02-24T00:53:39;3.00;99.90
11963;DHT22;62678;52.130;5.584;2023-02-24T00:56:06;3.00;99.90
11963;DHT22;62678;52.130;5.584;2023-02-24T00:58:36;2.90;99.90
11963;DHT22;62678;52.130;5.584;2023-02-24T01:01:03;2.90;99.90
11963;DHT22;62678;52.130;5.584;2023-02-24T01:03:33;2.80;99.90
11963;DHT22;62678;52.130;5.584;2023-02-24T01:06:02;2.70;99.90
11963;DHT22;62678;52.130;5.584;2023-02-24T01:08:29;2.70;99.90
11963;DHT22;62678;52.130;5.584;2023-02-24T01:11:01;2.70;99.90
11963;DHT22;62678;52.130;5.584;2023-02-24T01:13:47;2.60;99.90
11963;DHT22;62678;52.130;5.584;2023-02-24T01:16:14;2.60;99.90
11963;DHT22;62678;52.130;5.584;2023-02-24T01:18:43;2.50;99.90
11963;DHT22;62678;52.130;5.584;2023-02-24T01:21:12;2.50;99.90
11963;DHT22;62678;52.130;5.584;2023-02-24T01:23:45;2.40;99.90
11963;DHT22;62678;52.130;5.584;2023-02-24T01:26:22;2.40;99.90
11963;DHT22;62678;52.130;5.584;2023-02-24T01:28:56;2.40;99.90
11963;DHT22;62678;52.130;5.584;2023-02-24T01:31:31;2.40;99.90
11963;DHT22;62678;52.130;5.584;2023-02-24T01:34:04;2.30;99.90
11963;DHT22;62678;52.130;5.584;2023-02-24T01:36:32;2.30;99.90
11963;DHT22;62678;52.130;5.584;2023-02-24T01:39:00;2.30;99.90
11963;DHT22;62678;52.130;5.584;2023-02-24T01:41:29;2.20;99.90
11963;DHT22;62678;52.130;5.584;2023-02-24T01:43:59;2.10;99.90
11963;DHT22;62678;52.130;5.584;2023-02-24T01:46:26;2.00;99.90
11963;DHT22;62678;52.130;5.584;2023-02-24T01:48:56;1.90;99.90
11963;DHT22;62678;52.130;5.584;2023-02-24T01:51:28;1.90;99.90
11963;DHT22;62678;52.130;5.584;2023-02-24T01:53:58;1.80;99.90
11963;DHT22;62678;52.130;5.584;2023-02-24T01:56:26;1.80;99.90
11963;DHT22;62678;52.130;5.584;2023-02-24T01:58:54;1.80;99.90
11963;DHT22;62678;52.130;5.584;2023-02-24T02:01:22;1.80;99.90
11963;DHT22;62678;52.130;5.584;2023-02-24T02:03:49;1.70;99.90
11963;DHT22;62678;52.130;5.584;2023-02-24T02:06:17;1.80;99.90
11963;DHT22;62678;52.130;5.584;2023-02-24T02:08:44;1.70;99.90
11963;DHT22;62678;52.130;5.584;2023-02-24T02:11:15;1.70;99.90
11963;DHT22;62678;52.130;5.584;2023-02-24T02:13:48;1.70;99.90
11963;DHT22;62678;52.130;5.584;2023-02-24T02:16:43;1.70;99.90
11963;DHT22;62678;52.130;5.584;2023-02-24T02:19:54;1.70;99.90
11963;DHT22;62678;52.130;5.584;2023-02-24T02:22:47;1.70;99.90
11963;DHT22;62678;52.130;5.584;2023-02-24T02:25:28;1.70;99.90
11963;DHT22;62678;52.130;5.584;2023-02-24T02:28:40;1.60;99.90
11963;DHT22;62678;52.130;5.584;2023-02-24T02:31:32;1.70;99.90
11963;DHT22;62678;52.130;5.584;2023-02-24T02:34:33;1.70;99.90
11963;DHT22;62678;52.130;5.584;2023-02-24T02:37:07;1.70;99.90
11963;DHT22;62678;52.130;5.584;2023-02-24T02:39:43;1.60;99.90
11963;DHT22;62678;52.130;5.584;2023-02-24T02:42:22;1.60;99.90
11963;DHT22;62678;52.130;5.584;2023-02-24T02:44:54;1.60;99.90
11963;DHT22;62678;52.130;5.584;2023-02-24T02:47:27;1.70;99.90
11963;DHT22;62678;52.130;5.584;2023-02-24T02:50:00;1.60;99.90
11963;DHT22;62678;52.130;5.584;2023-02-24T02:52:32;1.60;99.90
11963;DHT22;62678;52.130;5.584;2023-02-24T02:55:04;1.60;99.90
11963;DHT22;62678;52.130;5.584;2023-02-24T02:57:33;1.60;99.90
11963;DHT22;62678;52.130;5.584;2023-02-24T03:00:05;1.50;99.90
11963;DHT22;62678;52.130;5.584;2023-02-24T03:02:40;1.60;99.90
11963;DHT22;62678;52.130;5.584;2023-02-24T03:05:13;1.60;99.90
11963;DHT22;62678;52.130;5.584;2023-02-24T03:07:46;1.60;99.90
11963;DHT22;62678;52.130;5.584;2023-02-24T03:10:17;1.60;99.90
11963;DHT22;62678;52.130;5.584;2023-02-24T03:12:50;1.60;99.90
11963;DHT22;62678;52.130;5.584;2023-02-24T03:15:21;1.60;99.90
11963;DHT22;62678;52.130;5.584;2023-02-24T03:17:52;1.60;99.90
11963;DHT22;62678;52.130;5.584;2023-02-24T03:20:25;1.60;99.90
11963;DHT22;62678;52.130;5.584;2023-02-24T03:22:58;1.70;99.90
11963;DHT22;62678;52.130;5.584;2023-02-24T03:25:30;1.70;99.90
11963;DHT22;62678;52.130;5.584;2023-02-24T03:28:01;1.70;99.90
11963;DHT22;62678;52.130;5.584;2023-02-24T03:30:37;1.70;99.90
11963;DHT22;62678;52.130;5.584;2023-02-24T03:33:11;1.70;99.90
11963;DHT22;62678;52.130;5.584;2023-02-24T03:35:42;1.80;99.90
11963;DHT22;62678;52.130;5.584;2023-02-24T03:38:10;1.70;99.90
11963;DHT22;62678;52.130;5.584;2023-02-24T03:40:39;1.80;99.90
11963;DHT22;62678;52.130;5.584;2023-02-24T03:43:12;1.80;99.90
11963;DHT22;62678;52.130;5.584;2023-02-24T03:45:41;1.80;99.90
11963;DHT22;62678;52.130;5.584;2023-02-24T03:48:09;1.80;99.90
11963;DHT22;62678;52.130;5.584;2023-02-24T03:50:38;1.80;99.90
11963;DHT22;62678;52.130;5.584;2023-02-24T03:53:15;1.90;99.90
11963;DHT22;62678;52.130;5.584;2023-02-24T03:55:54;1.90;99.90
11963;DHT22;62678;52.130;5.584;2023-02-24T03:58:30;2.00;99.90
11963;DHT22;62678;52.130;5.584;2023-02-24T04:01:07;2.00;99.90
11963;DHT22;62678;52.130;5.584;2023-02-24T04:03:44;2.10;99.90
11963;DHT22;62678;52.130;5.584;2023-02-24T04:06:17;2.10;99.90
11963;DHT22;62678;52.130;5.584;2023-02-24T04:08:50;2.10;99.90
11963;DHT22;62678;52.130;5.584;2023-02-24T04:11:23;2.20;99.90
11963;DHT22;62678;52.130;5.584;2023-02-24T04:13:54;2.20;99.90
11963;DHT22;62678;52.130;5.584;2023-02-24T04:16:28;2.20;99.90
11963;DHT22;62678;52.130;5.584;2023-02-24T04:19:04;2.30;99.90
11963;DHT22;62678;52.130;5.584;2023-02-24T04:21:34;2.30;99.90
11963;DHT22;62678;52.130;5.584;2023-02-24T04:24:05;2.30;99.90
11963;DHT22;62678;52.130;5.584;2023-02-24T04:26:37;2.30;99.90
11963;DHT22;62678;52.130;5.584;2023-02-24T04:29:06;2.30;99.90
11963;DHT22;62678;52.130;5.584;2023-02-24T04:31:34;2.40;99.90
11963;DHT22;62678;52.130;5.584;2023-02-24T04:34:03;2.40;99.90
11963;DHT22;62678;52.130;5.584;2023-02-24T04:36:36;2.40;99.90
11963;DHT22;62678;52.130;5.584;2023-02-24T04:39:05;2.40;99.90
11963;DHT22;62678;52.130;5.584;2023-02-24T04:41:32;2.50;99.90
11963;DHT22;62678;52.130;5.584;2023-02-24T04:44:00;2.50;99.90
11963;DHT22;62678;52.130;5.584;2023-02-24T04:46:26;2.50;99.90
11963;DHT22;62678;52.130;5.584;2023-02-24T04:48:56;2.50;99.90
11963;DHT22;62678;52.130;5.584;2023-02-24T04:51:24;2.60;99.90
11963;DHT22;62678;52.130;5.584;2023-02-24T04:53:51;2.50;99.90
11963;DHT22;62678;52.130;5.584;2023-02-24T04:56:21;2.50;99.90
11963;DHT22;62678;52.130;5.584;2023-02-24T04:58:48;2.60;99.90
11963;DHT22;62678;52.130;5.584;2023-02-24T05:01:14;2.60;99.90
11963;DHT22;62678;52.130;5.584;2023-02-24T05:03:41;2.70;99.90
11963;DHT22;62678;52.130;5.584;2023-02-24T05:06:13;2.70;99.90
11963;DHT22;62678;52.130;5.584;2023-02-24T05:08:40;2.80;99.90
11963;DHT22;62678;52.130;5.584;2023-02-24T05:11:11;2.80;99.90
11963;DHT22;62678;52.130;5.584;2023-02-24T05:13:41;2.90;99.90
11963;DHT22;62678;52.130;5.584;2023-02-24T05:16:12;2.90;99.90
11963;DHT22;62678;52.130;5.584;2023-02-24T05:18:40;2.90;99.90
11963;DHT22;62678;52.130;5.584;2023-02-24T05:21:09;2.90;99.90
11963;DHT22;62678;52.130;5.584;2023-02-24T05:23:55;2.90;99.90
11963;DHT22;62678;52.130;5.584;2023-02-24T05:26:22;3.00;99.90
11963;DHT22;62678;52.130;5.584;2023-02-24T05:28:53;2.90;99.90
11963;DHT22;62678;52.130;5.584;2023-02-24T05:31:22;2.90;99.90
11963;DHT22;62678;52.130;5.584;2023-02-24T05:33:52;2.90;99.90
11963;DHT22;62678;52.130;5.584;2023-02-24T05:36:21;2.90;99.90
11963;DHT22;62678;52.130;5.584;2023-02-24T05:38:49;2.80;99.90
11963;DHT22;62678;52.130;5.584;2023-02-24T05:41:21;2.90;99.90
11963;DHT22;62678;52.130;5.584;2023-02-24T05:43:53;2.90;99.90
11963;DHT22;62678;52.130;5.584;2023-02-24T05:46:21;3.00;99.90
11963;DHT22;62678;52.130;5.584;2023-02-24T05:48:53;3.00;99.90
11963;DHT22;62678;52.130;5.584;2023-02-24T05:51:22;3.00;99.90
11963;DHT22;62678;52.130;5.584;2023-02-24T05:53:49;3.00;99.90
11963;DHT22;62678;52.130;5.584;2023-02-24T05:56:20;3.00;99.90
11963;DHT22;62678;52.130;5.584;2023-02-24T05:58:47;3.00;99.90
11963;DHT22;62678;52.130;5.584;2023-02-24T06:01:16;3.00;99.90
11963;DHT22;62678;52.130;5.584;2023-02-24T06:03:44;2.90;99.90
11963;DHT22;62678;52.130;5.584;2023-02-24T06:06:12;3.10;99.90
11963;DHT22;62678;52.130;5.584;2023-02-24T06:08:41;3.10;99.90
11963;DHT22;62678;52.130;5.584;2023-02-24T06:11:14;3.00;99.90
11963;DHT22;62678;52.130;5.584;2023-02-24T06:13:41;3.10;99.90
11963;DHT22;62678;52.130;5.584;2023-02-24T06:16:12;3.10;99.90
11963;DHT22;62678;52.130;5.584;2023-02-24T06:18:41;3.10;99.90
11963;DHT22;62678;52.130;5.584;2023-02-24T06:21:09;3.00;99.90
11963;DHT22;62678;52.130;5.584;2023-02-24T06:23:37;3.00;99.90
11963;DHT22;62678;52.130;5.584;2023-02-24T06:26:05;3.10;99.90
11963;DHT22;62678;52.130;5.584;2023-02-24T06:28:38;3.10;99.90
11963;DHT22;62678;52.130;5.584;2023-02-24T06:31:05;3.10;99.90
11963;DHT22;62678;52.130;5.584;2023-02-24T06:33:32;3.20;99.90
11963;DHT22;62678;52.130;5.584;2023-02-24T06:36:02;3.20;99.90
11963;DHT22;62678;52.130;5.584;2023-02-24T06:38:29;3.20;99.90
11963;DHT22;62678;52.130;5.584;2023-02-24T06:40:56;3.20;99.90
11963;DHT22;62678;52.130;5.584;2023-02-24T06:43:23;3.30;99.90
11963;DHT22;62678;52.130;5.584;2023-02-24T06:45:50;3.20;99.90
11963;DHT22;62678;52.130;5.584;2023-02-24T06:48:17;3.30;99.90
11963;DHT22;62678;52.130;5.584;2023-02-24T06:50:44;3.30;99.90
11963;DHT22;62678;52.130;5.584;2023-02-24T06:53:12;3.30;99.90
11963;DHT22;62678;52.130;5.584;2023-02-24T06:55:43;3.40;99.90
11963;DHT22;62678;52.130;5.584;2023-02-24T06:58:15;3.30;99.90
11963;DHT22;62678;52.130;5.584;2023-02-24T07:00:44;3.30;99.90
11963;DHT22;62678;52.130;5.584;2023-02-24T07:03:22;3.30;99.90
11963;DHT22;62678;52.130;5.584;2023-02-24T07:05:51;3.20;99.90
11963;DHT22;62678;52.130;5.584;2023-02-24T07:08:37;3.40;99.90
11963;DHT22;62678;52.130;5.584;2023-02-24T07:11:04;3.40;99.90
11963;DHT22;62678;52.130;5.584;2023-02-24T07:13:33;3.40;99.90
11963;DHT22;62678;52.130;5.584;2023-02-24T07:16:01;3.40;99.90
11963;DHT22;62678;52.130;5.584;2023-02-24T07:18:31;3.50;99.90
11963;DHT22;62678;52.130;5.584;2023-02-24T07:21:01;3.50;99.90
11963;DHT22;62678;52.130;5.584;2023-02-24T07:23:30;3.40;99.90
11963;DHT22;62678;52.130;5.584;2023-02-24T07:25:58;3.50;99.90
11963;DHT22;62678;52.130;5.584;2023-02-24T07:28:25;3.50;99.90
11963;DHT22;62678;52.130;5.584;2023-02-24T07:30:52;3.60;99.90
11963;DHT22;62678;52.130;5.584;2023-02-24T07:33:19;3.70;99.90
11963;DHT22;62678;52.130;5.584;2023-02-24T07:35:49;3.70;99.90
11963;DHT22;62678;52.130;5.584;2023-02-24T07:38:16;3.70;99.90
11963;DHT22;62678;52.130;5.584;2023-02-24T07:40:47;3.80;99.90
11963;DHT22;62678;52.130;5.584;2023-02-24T07:43:15;3.80;99.90
11963;DHT22;62678;52.130;5.584;2023-02-24T07:45:43;3.90;99.90
11963;DHT22;62678;52.130;5.584;2023-02-24T07:48:11;4.00;99.90
11963;DHT22;62678;52.130;5.584;2023-02-24T07:50:39;4.10;99.90
11963;DHT22;62678;52.130;5.584;2023-02-24T07:53:06;4.10;99.90
11963;DHT22;62678;52.130;5.584;2023-02-24T07:55:35;4.10;99.90
11963;DHT22;62678;52.130;5.584;2023-02-24T07:58:02;4.00;99.90
11963;DHT22;62678;52.130;5.584;2023-02-24T08:00:31;4.20;99.90
11963;DHT22;62678;52.130;5.584;2023-02-24T08:03:14;4.20;99.90
11963;DHT22;62678;52.130;5.584;2023-02-24T08:05:41;4.20;99.90
11963;DHT22;62678;52.130;5.584;2023-02-24T08:08:09;4.20;99.90
11963;DHT22;62678;52.130;5.584;2023-02-24T08:10:39;4.30;99.90
11963;DHT22;62678;52.130;5.584;2023-02-24T08:13:06;4.30;99.90
11963;DHT22;62678;52.130;5.584;2023-02-24T08:15:37;4.40;99.90
11963;DHT22;62678;52.130;5.584;2023-02-24T08:18:05;4.60;99.90
11963;DHT22;62678;52.130;5.584;2023-02-24T08:20:33;4.60;99.90
11963;DHT22;62678;52.130;5.584;2023-02-24T08:23:16;4.60;99.90
11963;DHT22;62678;52.130;5.584;2023-02-24T08:25:44;4.70;99.90
11963;DHT22;62678;52.130;5.584;2023-02-24T08:28:11;4.80;99.90
11963;DHT22;62678;52.130;5.584;2023-02-24T08:30:41;4.90;99.90
11963;DHT22;62678;52.130;5.584;2023-02-24T08:33:12;4.80;99.90
11963;DHT22;62678;52.130;5.584;2023-02-24T08:35:42;5.00;99.90
11963;DHT22;62678;52.130;5.584;2023-02-24T08:38:12;5.00;99.90
11963;DHT22;62678;52.130;5.584;2023-02-24T08:40:42;5.00;99.90
11963;DHT22;62678;52.130;5.584;2023-02-24T08:43:22;5.00;99.90
11963;DHT22;62678;52.130;5.584;2023-02-24T08:46:01;4.80;99.90
11963;DHT22;62678;52.130;5.584;2023-02-24T08:48:31;4.80;99.90
11963;DHT22;62678;52.130;5.584;2023-02-24T08:51:06;4.80;99.90
11963;DHT22;62678;52.130;5.584;2023-02-24T08:53:34;4.90;99.90
11963;DHT22;62678;52.130;5.584;2023-02-24T08:56:07;4.80;99.90
11963;DHT22;62678;52.130;5.584;2023-02-24T08:58:39;4.90;99.90
11963;DHT22;62678;52.130;5.584;2023-02-24T09:01:16;4.80;99.90
11963;DHT22;62678;52.130;5.584;2023-02-24T09:03:50;4.90;99.90
11963;DHT22;62678;52.130;5.584;2023-02-24T09:06:20;4.90;99.90
11963;DHT22;62678;52.130;5.584;2023-02-24T09:08:53;4.90;99.90
11963;DHT22;62678;52.130;5.584;2023-02-24T09:11:37;5.00;99.90
11963;DHT22;62678;52.130;5.584;2023-02-24T09:14:09;5.00;99.90
11963;DHT22;62678;52.130;5.584;2023-02-24T09:16:43;5.20;99.90
11963;DHT22;62678;52.130;5.584;2023-02-24T09:19:28;5.30;99.90
11963;DHT22;62678;52.130;5.584;2023-02-24T09:22:13;5.30;99.90
11963;DHT22;62678;52.130;5.584;2023-02-24T09:24:56;5.30;99.90
11963;DHT22;62678;52.130;5.584;2023-02-24T09:27:42;5.30;99.90
11963;DHT22;62678;52.130;5.584;2023-02-24T09:30:12;5.50;99.90
11963;DHT22;62678;52.130;5.584;2023-02-24T09:33:05;5.60;99.90
11963;DHT22;62678;52.130;5.584;2023-02-24T09:35:33;5.70;99.90
11963;DHT22;62678;52.130;5.584;2023-02-24T09:38:06;5.80;99.90
11963;DHT22;62678;52.130;5.584;2023-02-24T09:40:33;5.70;99.90
11963;DHT22;62678;52.130;5.584;2023-02-24T09:43:07;5.70;99.90
11963;DHT22;62678;52.130;5.584;2023-02-24T09:45:45;5.70;99.90
11963;DHT22;62678;52.130;5.584;2023-02-24T09:48:34;5.60;99.90
11963;DHT22;62678;52.130;5.584;2023-02-24T09:51:10;5.60;99.90
11963;DHT22;62678;52.130;5.584;2023-02-24T09:53:47;5.50;99.90
11963;DHT22;62678;52.130;5.584;2023-02-24T09:56:26;5.50;99.90
11963;DHT22;62678;52.130;5.584;2023-02-24T10:01:56;5.60;99.90
11963;DHT22;62678;52.130;5.584;2023-02-24T10:04:53;5.50;99.90
11963;DHT22;62678;52.130;5.584;2023-02-24T10:07:35;5.60;99.90
11963;DHT22;62678;52.130;5.584;2023-02-24T10:10:07;5.50;99.90
11963;DHT22;62678;52.130;5.584;2023-02-24T10:12:57;5.60;99.90
11963;DHT22;62678;52.130;5.584;2023-02-24T10:15:31;5.50;99.90
11963;DHT22;62678;52.130;5.584;2023-02-24T10:18:29;5.50;99.90
11963;DHT22;62678;52.130;5.584;2023-02-24T10:21:05;5.60;99.90
11963;DHT22;62678;52.130;5.584;2023-02-24T10:23:50;5.70;99.90
11963;DHT22;62678;52.130;5.584;2023-02-24T10:26:27;5.70;99.90
11963;DHT22;62678;52.130;5.584;2023-02-24T10:29:16;5.60;99.90
11963;DHT22;62678;52.130;5.584;2023-02-24T10:32:02;5.60;99.90
11963;DHT22;62678;52.130;5.584;2023-02-24T10:34:32;5.70;99.90
11963;DHT22;62678;52.130;5.584;2023-02-24T10:37:11;5.70;99.90
11963;DHT22;62678;52.130;5.584;2023-02-24T10:39:38;5.80;99.90
11963;DHT22;62678;52.130;5.584;2023-02-24T10:42:08;5.80;99.90
11963;DHT22;62678;52.130;5.584;2023-02-24T10:44:43;5.90;99.90
11963;DHT22;62678;52.130;5.584;2023-02-24T10:47:19;5.90;99.90
11963;DHT22;62678;52.130;5.584;2023-02-24T10:49:57;5.90;99.90
11963;DHT22;62678;52.130;5.584;2023-02-24T10:52:30;6.00;99.90
11963;DHT22;62678;52.130;5.584;2023-02-24T10:55:37;5.90;99.90
11963;DHT22;62678;52.130;5.584;2023-02-24T10:58:21;6.00;99.90
11963;DHT22;62678;52.130;5.584;2023-02-24T11:01:07;6.10;99.90
11963;DHT22;62678;52.130;5.584;2023-02-24T11:03:48;6.10;99.90
11963;DHT22;62678;52.130;5.584;2023-02-24T11:06:28;6.20;99.90
11963;DHT22;62678;52.130;5.584;2023-02-24T11:09:18;6.30;99.90
11963;DHT22;62678;52.130;5.584;2023-02-24T11:11:59;6.20;99.90
11963;DHT22;62678;52.130;5.584;2023-02-24T11:14:50;6.20;99.90
11963;DHT22;62678;52.130;5.584;2023-02-24T11:17:36;6.30;99.90
11963;DHT22;62678;52.130;5.584;2023-02-24T11:20:06;6.40;99.90
11963;DHT22;62678;52.130;5.584;2023-02-24T11:22:43;6.40;99.90
11963;DHT22;62678;52.130;5.584;2023-02-24T11:25:19;6.40;99.90
11963;DHT22;62678;52.130;5.584;2023-02-24T11:27:47;6.40;99.90
11963;DHT22;62678;52.130;5.584;2023-02-24T11:30:20;6.30;99.90
11963;DHT22;62678;52.130;5.584;2023-02-24T11:33:19;6.30;99.90
11963;DHT22;62678;52.130;5.584;2023-02-24T11:35:58;6.40;99.90
11963;DHT22;62678;52.130;5.584;2023-02-24T11:38:37;6.50;99.90
11963;DHT22;62678;52.130;5.584;2023-02-24T11:41:11;6.50;99.90
11963;DHT22;62678;52.130;5.584;2023-02-24T11:43:48;6.60;99.90
11963;DHT22;62678;52.130;5.584;2023-02-24T11:46:22;6.60;99.90
11963;DHT22;62678;52.130;5.584;2023-02-24T11:48:55;6.70;99.90
11963;DHT22;62678;52.130;5.584;2023-02-24T11:51:27;6.70;99.90
11963;DHT22;62678;52.130;5.584;2023-02-24T11:53:58;6.80;99.90
11963;DHT22;62678;52.130;5.584;2023-02-24T11:56:32;6.80;99.90
11963;DHT22;62678;52.130;5.584;2023-02-24T11:59:02;6.90;99.90
11963;DHT22;62678;52.130;5.584;2023-02-24T12:01:36;7.00;99.90
11963;DHT22;62678;52.130;5.584;2023-02-24T12:04:12;7.00;99.90
11963;DHT22;62678;52.130;5.584;2023-02-24T12:06:49;7.00;99.90
11963;DHT22;62678;52.130;5.584;2023-02-24T12:09:20;7.10;99.90
11963;DHT22;62678;52.130;5.584;2023-02-24T12:11:54;7.20;99.90
11963;DHT22;62678;52.130;5.584;2023-02-24T12:14:29;7.20;99.90
11963;DHT22;62678;52.130;5.584;2023-02-24T12:17:03;7.30;99.90
11963;DHT22;62678;52.130;5.584;2023-02-24T12:19:48;7.30;99.90
11963;DHT22;62678;52.130;5.584;2023-02-24T12:22:17;7.20;99.90
11963;DHT22;62678;52.130;5.584;2023-02-24T12:24:48;7.20;99.90
11963;DHT22;62678;52.130;5.584;2023-02-24T12:27:29;7.40;99.90
11963;DHT22;62678;52.130;5.584;2023-02-24T12:30:11;7.60;99.90
11963;DHT22;62678;52.130;5.584;2023-02-24T12:32:58;7.70;99.90
11963;DHT22;62678;52.130;5.584;2023-02-24T12:35:34;7.80;99.90
11963;DHT22;62678;52.130;5.584;2023-02-24T12:38:17;7.80;99.90
11963;DHT22;62678;52.130;5.584;2023-02-24T12:40:53;7.90;99.90
11963;DHT22;62678;52.130;5.584;2023-02-24T12:43:31;7.90;99.90
11963;DHT22;62678;52.130;5.584;2023-02-24T12:46:05;8.00;99.90
11963;DHT22;62678;52.130;5.584;2023-02-24T12:48:56;8.00;99.90
11963;DHT22;62678;52.130;5.584;2023-02-24T12:51:31;8.10;99.90
11963;DHT22;62678;52.130;5.584;2023-02-24T12:54:05;8.20;99.90
11963;DHT22;62678;52.130;5.584;2023-02-24T12:56:40;8.30;99.90
11963;DHT22;62678;52.130;5.584;2023-02-24T12:59:17;8.60;99.90
11963;DHT22;62678;52.130;5.584;2023-02-24T13:01:50;8.70;99.90
11963;DHT22;62678;52.130;5.584;2023-02-24T13:04:32;8.70;99.90
11963;DHT22;62678;52.130;5.584;2023-02-24T13:07:17;8.60;99.90
11963;DHT22;62678;52.130;5.584;2023-02-24T13:09:53;8.50;99.90
11963;DHT22;62678;52.130;5.584;2023-02-24T13:12:26;8.60;99.90
11963;DHT22;62678;52.130;5.584;2023-02-24T13:14:57;8.50;99.90
11963;DHT22;62678;52.130;5.584;2023-02-24T13:17:24;8.40;99.90
11963;DHT22;62678;52.130;5.584;2023-02-24T13:19:54;8.10;99.90
11963;DHT22;62678;52.130;5.584;2023-02-24T13:22:25;8.00;99.90
11963;DHT22;62678;52.130;5.584;2023-02-24T13:24:59;8.10;99.90
11963;DHT22;62678;52.130;5.584;2023-02-24T13:27:29;8.20;99.90
11963;DHT22;62678;52.130;5.584;2023-02-24T13:30:05;8.30;99.90
11963;DHT22;62678;52.130;5.584;2023-02-24T13:32:35;8.40;99.90
11963;DHT22;62678;52.130;5.584;2023-02-24T13:35:04;8.60;99.90
11963;DHT22;62678;52.130;5.584;2023-02-24T13:37:34;8.80;99.90
11963;DHT22;62678;52.130;5.584;2023-02-24T13:40:19;8.80;99.90
11963;DHT22;62678;52.130;5.584;2023-02-24T13:42:56;8.80;99.90
11963;DHT22;62678;52.130;5.584;2023-02-24T13:45:26;8.70;99.90
11963;DHT22;62678;52.130;5.584;2023-02-24T13:50:58;8.10;99.90
11963;DHT22;62678;52.130;5.584;2023-02-24T13:53:35;7.80;99.90
11963;DHT22;62678;52.130;5.584;2023-02-24T13:56:17;7.40;99.90
11963;DHT22;62678;52.130;5.584;2023-02-24T13:58:58;7.20;99.90
11963;DHT22;62678;52.130;5.584;2023-02-24T14:01:42;7.10;99.90
11963;DHT22;62678;52.130;5.584;2023-02-24T14:04:13;7.00;99.90
11963;DHT22;62678;52.130;5.584;2023-02-24T14:06:45;7.10;99.90
11963;DHT22;62678;52.130;5.584;2023-02-24T14:09:16;7.20;99.90
11963;DHT22;62678;52.130;5.584;2023-02-24T14:11:49;7.40;99.90
11963;DHT22;62678;52.130;5.584;2023-02-24T14:14:18;7.50;99.90
11963;DHT22;62678;52.130;5.584;2023-02-24T14:16:49;7.70;99.90
11963;DHT22;62678;52.130;5.584;2023-02-24T14:19:16;7.80;99.90
11963;DHT22;62678;52.130;5.584;2023-02-24T14:21:49;7.90;99.90
11963;DHT22;62678;52.130;5.584;2023-02-24T14:24:17;8.00;99.90
11963;DHT22;62678;52.130;5.584;2023-02-24T14:26:46;7.90;99.90
11963;DHT22;62678;52.130;5.584;2023-02-24T14:29:16;7.90;99.90
11963;DHT22;62678;52.130;5.584;2023-02-24T14:31:48;7.80;99.90
11963;DHT22;62678;52.130;5.584;2023-02-24T14:34:19;7.70;99.90
11963;DHT22;62678;52.130;5.584;2023-02-24T14:36:48;7.70;99.90
11963;DHT22;62678;52.130;5.584;2023-02-24T14:39:18;7.70;99.90
11963;DHT22;62678;52.130;5.584;2023-02-24T14:41:47;7.50;99.90
11963;DHT22;62678;52.130;5.584;2023-02-24T14:44:19;7.50;99.90
11963;DHT22;62678;52.130;5.584;2023-02-24T14:46:51;7.50;99.90
11963;DHT22;62678;52.130;5.584;2023-02-24T14:49:21;7.60;99.90
11963;DHT22;62678;52.130;5.584;2023-02-24T14:51:52;7.70;99.90
11963;DHT22;62678;52.130;5.584;2023-02-24T14:54:29;7.70;99.90
11963;DHT22;62678;52.130;5.584;2023-02-24T14:56:59;7.80;99.90
11963;DHT22;62678;52.130;5.584;2023-02-24T14:59:30;7.80;99.90
11963;DHT22;62678;52.130;5.584;2023-02-24T15:02:00;7.90;99.90
11963;DHT22;62678;52.130;5.584;2023-02-24T15:04:34;8.00;99.90
11963;DHT22;62678;52.130;5.584;2023-02-24T15:07:05;8.20;99.90
11963;DHT22;62678;52.130;5.584;2023-02-24T15:09:35;8.30;99.90
11963;DHT22;62678;52.130;5.584;2023-02-24T15:12:15;8.30;99.90
11963;DHT22;62678;52.130;5.584;2023-02-24T15:14:47;8.40;99.90
11963;DHT22;62678;52.130;5.584;2023-02-24T15:17:19;8.60;99.90
11963;DHT22;62678;52.130;5.584;2023-02-24T15:19:48;8.60;99.90
11963;DHT22;62678;52.130;5.584;2023-02-24T15:22:24;8.40;99.90
11963;DHT22;62678;52.130;5.584;2023-02-24T15:24:53;8.10;99.90
11963;DHT22;62678;52.130;5.584;2023-02-24T15:27:24;7.90;99.90
11963;DHT22;62678;52.130;5.584;2023-02-24T15:30:04;7.80;99.90
11963;DHT22;62678;52.130;5.584;2023-02-24T15:32:36;7.70;99.90
11963;DHT22;62678;52.130;5.584;2023-02-24T15:35:05;7.60;99.90
11963;DHT22;62678;52.130;5.584;2023-02-24T15:37:37;7.70;99.90
11963;DHT22;62678;52.130;5.584;2023-02-24T15:40:16;7.80;99.90
11963;DHT22;62678;52.130;5.584;2023-02-24T15:42:49;7.70;99.90
11963;DHT22;62678;52.130;5.584;2023-02-24T15:45:26;7.70;99.90
11963;DHT22;62678;52.130;5.584;2023-02-24T15:47:57;7.60;99.90
11963;DHT22;62678;52.130;5.584;2023-02-24T15:50:25;7.60;99.90
11963;DHT22;62678;52.130;5.584;2023-02-24T15:52:55;7.30;99.90
11963;DHT22;62678;52.130;5.584;2023-02-24T15:55:23;7.00;99.90
11963;DHT22;62678;52.130;5.584;2023-02-24T15:57:58;6.90;99.90
11963;DHT22;62678;52.130;5.584;2023-02-24T16:00:25;6.70;99.90
11963;DHT22;62678;52.130;5.584;2023-02-24T16:02:54;6.70;99.90
11963;DHT22;62678;52.130;5.584;2023-02-24T16:05:21;6.60;99.90
11963;DHT22;62678;52.130;5.584;2023-02-24T16:07:48;6.60;99.90
11963;DHT22;62678;52.130;5.584;2023-02-24T16:10:19;6.50;99.90
11963;DHT22;62678;52.130;5.584;2023-02-24T16:12:49;6.60;99.90
11963;DHT22;62678;52.130;5.584;2023-02-24T16:15:21;6.50;99.90
11963;DHT22;62678;52.130;5.584;2023-02-24T16:17:49;6.60;99.90
11963;DHT22;62678;52.130;5.584;2023-02-24T16:20:20;6.60;99.90
11963;DHT22;62678;52.130;5.584;2023-02-24T16:22:56;6.70;99.90
11963;DHT22;62678;52.130;5.584;2023-02-24T16:25:24;6.70;99.90
11963;DHT22;62678;52.130;5.584;2023-02-24T16:27:52;6.80;99.90